createdAt,value
2022-11-18T00:00:03.549Z,16.17
2022-11-18T00:03:06.455Z,15.35
2022-11-18T00:06:11.944Z,13.75
2022-11-18T00:09:13.406Z,16.15
2022-11-18T00:12:33.244Z,15.10
2022-11-18T00:15:34.762Z,12.60
2022-11-18T00:18:36.832Z,15.70
2022-11-18T00:21:38.393Z,16.00
2022-11-18T00:24:39.871Z,13.77
2022-11-18T00:27:41.414Z,15.07
2022-11-18T00:30:42.975Z,15.68
2022-11-18T00:33:44.464Z,11.68
2022-11-18T00:36:47.022Z,13.90
2022-11-18T00:39:48.515Z,13.68
2022-11-18T00:42:53.621Z,13.98
2022-11-18T00:45:55.152Z,13.05
2022-11-18T00:48:56.603Z,12.85
2022-11-18T00:51:58.206Z,12.73
2022-11-18T00:54:59.648Z,13.55
2022-11-18T00:58:01.087Z,12.77
2022-11-18T01:01:04.191Z,12.95
2022-11-18T01:04:05.804Z,13.23
2022-11-18T01:07:07.326Z,12.55
2022-11-18T01:10:09.249Z,12.57
2022-11-18T01:13:20.184Z,12.10
2022-11-18T01:16:24.189Z,11.13
2022-11-18T01:19:26.344Z,11.52
2022-11-18T01:22:27.916Z,12.90
2022-11-18T01:25:30.243Z,10.98
2022-11-18T01:28:32.063Z,11.23
2022-11-18T01:31:33.559Z,12.68
2022-11-18T01:34:35.273Z,12.23
2022-11-18T01:37:37.213Z,10.60
2022-11-18T01:40:39.109Z,11.45
2022-11-18T01:44:01.475Z,10.13
2022-11-18T01:47:02.939Z,12.82
2022-11-18T01:50:05.180Z,11.52
2022-11-18T01:53:12.087Z,10.32
2022-11-18T01:56:21.117Z,9.93
2022-11-18T01:59:27.607Z,11.32
2022-11-18T02:05:34.739Z,10.55
2022-11-18T02:08:37.541Z,11.20
2022-11-18T02:11:51.589Z,10.20
2022-11-18T02:14:53.410Z,12.23
2022-11-18T02:18:07.031Z,10.93
2022-11-18T02:21:27.062Z,10.70
2022-11-18T02:24:54.972Z,9.35
2022-11-18T02:28:05.433Z,10.57
2022-11-18T02:31:49.783Z,9.18
2022-11-18T02:35:01.078Z,8.32
2022-11-18T02:38:11.762Z,9.68
2022-11-18T02:41:18.989Z,9.90
2022-11-18T02:44:24.186Z,10.68
2022-11-18T02:47:28.992Z,9.38
2022-11-18T02:50:33.457Z,10.10
2022-11-18T02:53:38.161Z,10.10
2022-11-18T02:56:41.127Z,9.07
2022-11-18T02:59:42.657Z,9.77
2022-11-18T03:02:46.666Z,9.05
2022-11-18T03:06:06.592Z,9.57
2022-11-18T03:09:18.571Z,7.93
2022-11-18T03:12:29.204Z,8.07
2022-11-18T03:15:51.812Z,8.25
2022-11-18T03:19:04.344Z,8.77
2022-11-18T03:22:05.737Z,9.43
2022-11-18T03:25:21.112Z,8.68
2022-11-18T03:28:37.061Z,8.57
2022-11-18T03:31:46.495Z,8.57
2022-11-18T03:34:52.605Z,8.98
2022-11-18T03:38:02.564Z,9.23
2022-11-18T03:41:08.403Z,8.23
2022-11-18T03:44:13.753Z,7.97
2022-11-18T03:47:22.857Z,7.90
2022-11-18T03:50:31.976Z,7.65
2022-11-18T03:53:37.096Z,8.25
2022-11-18T03:56:45.987Z,7.90
2022-11-18T03:59:53.663Z,7.60
2022-11-18T04:02:55.453Z,8.30
2022-11-18T04:06:05.422Z,8.40
2022-11-18T04:09:13.432Z,7.72
2022-11-18T04:12:18.858Z,8.15
2022-11-18T04:15:20.622Z,8.10
2022-11-18T04:18:22.748Z,7.50
2022-11-18T04:21:24.237Z,7.63
2022-11-18T04:24:25.767Z,7.65
2022-11-18T04:27:27.258Z,7.38
2022-11-18T04:30:29.378Z,7.25
2022-11-18T04:33:30.826Z,6.93
2022-11-18T04:36:32.402Z,7.82
2022-11-18T04:39:33.924Z,7.25
2022-11-18T04:42:35.598Z,7.85
2022-11-18T04:45:37.070Z,8.55
2022-11-18T04:48:38.554Z,7.30
2022-11-18T04:51:41.313Z,7.15
2022-11-18T04:54:43.082Z,7.03
2022-11-18T04:57:44.566Z,7.03
2022-11-18T05:00:46.033Z,6.55
2022-11-18T05:03:50.570Z,7.60
2022-11-18T05:06:53.199Z,6.90
2022-11-18T05:09:54.705Z,7.65
2022-11-18T05:12:56.220Z,6.80
2022-11-18T05:16:01.227Z,7.40
2022-11-18T05:19:04.663Z,7.60
2022-11-18T05:22:07.327Z,7.03
2022-11-18T05:25:09.391Z,7.32
2022-11-18T05:28:10.938Z,7.05
2022-11-18T05:31:16.343Z,6.75
2022-11-18T05:34:18.609Z,6.88
2022-11-18T05:37:20.151Z,7.32
2022-11-18T05:40:21.601Z,7.40
2022-11-18T05:43:23.123Z,6.35
2022-11-18T05:46:24.992Z,5.97
2022-11-18T05:49:26.446Z,7.38
2022-11-18T05:52:28.031Z,5.93
2022-11-18T05:55:35.268Z,6.47
2022-11-18T05:58:36.763Z,6.50
2022-11-18T06:01:40.257Z,6.35
2022-11-18T06:04:54.675Z,7.10
2022-11-18T06:07:57.683Z,5.97
2022-11-18T06:10:59.571Z,7.05
2022-11-18T06:14:10.056Z,6.63
2022-11-18T06:17:19.568Z,6.80
2022-11-18T06:20:21.635Z,6.13
2022-11-18T06:23:23.530Z,6.03
2022-11-18T06:26:25.080Z,5.97
2022-11-18T06:29:28.270Z,6.80
2022-11-18T06:32:30.044Z,5.75
2022-11-18T06:35:31.561Z,6.18
2022-11-18T06:38:33.049Z,5.75
2022-11-18T06:41:34.572Z,7.20
2022-11-18T06:44:36.098Z,6.10
2022-11-18T06:47:37.838Z,5.95
2022-11-18T06:50:39.352Z,6.15
2022-11-18T06:53:40.877Z,5.95
2022-11-18T06:56:42.375Z,7.30
2022-11-18T06:59:44.030Z,10.23
2022-11-18T07:02:45.504Z,5.43
2022-11-18T07:05:46.984Z,7.00
2022-11-18T07:08:49.235Z,5.97
2022-11-18T07:11:50.772Z,7.45
2022-11-18T07:14:52.269Z,6.47
2022-11-18T07:17:53.742Z,6.93
2022-11-18T07:20:55.200Z,5.90
2022-11-18T07:23:58.920Z,5.10
2022-11-18T07:27:00.368Z,5.60
2022-11-18T07:30:01.888Z,5.05
2022-11-18T07:33:03.474Z,5.38
2022-11-18T07:36:10.824Z,4.93
2022-11-18T07:39:12.406Z,5.22
2022-11-18T07:42:13.891Z,5.88
2022-11-18T07:45:15.447Z,5.13
2022-11-18T07:48:16.995Z,5.63
2022-11-18T07:51:21.119Z,5.15
2022-11-18T07:54:22.694Z,5.47
2022-11-18T07:57:24.217Z,5.50
2022-11-18T08:00:25.743Z,4.93
2022-11-18T08:03:28.223Z,5.45
2022-11-18T08:06:33.023Z,4.78
2022-11-18T08:09:34.551Z,5.07
2022-11-18T08:12:36.063Z,5.35
2022-11-18T08:15:41.401Z,7.30
2022-11-18T08:18:43.310Z,5.00
2022-11-18T08:21:44.761Z,4.65
2022-11-18T08:24:50.078Z,4.70
2022-11-18T08:27:52.393Z,5.88
2022-11-18T08:30:53.917Z,6.43
2022-11-18T08:34:03.352Z,5.30
2022-11-18T08:37:04.886Z,4.63
2022-11-18T08:40:06.823Z,5.05
2022-11-18T08:43:10.976Z,6.93
2022-11-18T08:46:12.494Z,5.57
2022-11-18T08:49:14.650Z,4.93
2022-11-18T08:52:16.206Z,4.47
2022-11-18T08:55:17.697Z,4.72
2022-11-18T08:58:19.219Z,5.15
2022-11-18T09:01:20.811Z,4.05
2022-11-18T09:04:22.538Z,4.68
2022-11-18T09:07:24.175Z,4.63
2022-11-18T09:10:25.725Z,6.45
2022-11-18T09:13:56.264Z,4.57
2022-11-18T09:16:48.651Z,9.27
2022-11-18T09:19:50.143Z,5.88
2022-11-18T09:22:51.706Z,8.63
2022-11-18T09:26:08.449Z,5.45
2022-11-18T09:29:11.574Z,8.05
2022-11-18T09:32:13.921Z,6.93
2022-11-18T09:35:15.710Z,7.05
2022-11-18T09:38:17.236Z,7.05
2022-11-18T09:41:44.116Z,6.25
2022-11-18T09:44:54.601Z,6.60
2022-11-18T09:48:06.261Z,5.57
2022-11-18T09:51:11.373Z,6.05
2022-11-18T09:54:30.460Z,7.18
2022-11-18T09:57:39.288Z,6.60
2022-11-18T10:00:43.539Z,6.82
2022-11-18T10:03:45.071Z,5.18
2022-11-18T10:06:49.095Z,8.02
2022-11-18T10:09:54.499Z,6.90
2022-11-18T10:13:05.787Z,7.63
2022-11-18T10:16:31.545Z,8.52
2022-11-18T10:19:54.760Z,6.93
2022-11-18T10:23:28.690Z,6.90
2022-11-18T10:26:39.398Z,7.28
2022-11-18T10:29:42.231Z,8.25
2022-11-18T10:33:22.176Z,6.43
2022-11-18T10:36:23.585Z,5.53
2022-11-18T10:39:25.101Z,6.65
2022-11-18T10:42:29.560Z,5.88
2022-11-18T10:45:32.477Z,7.07
2022-11-18T10:48:40.338Z,6.20
2022-11-18T10:51:46.533Z,6.28
2022-11-18T10:55:26.024Z,5.68
2022-11-18T10:58:30.548Z,5.22
2022-11-18T11:01:32.195Z,5.82
2022-11-18T11:04:36.490Z,7.00
2022-11-18T11:07:38.254Z,7.95
2022-11-18T11:10:39.783Z,6.25
2022-11-18T11:13:44.652Z,6.65
2022-11-18T11:17:15.518Z,4.47
2022-11-18T11:20:17.147Z,6.03
2022-11-18T11:23:23.514Z,4.72
2022-11-18T11:30:27.805Z,6.25
2022-11-18T11:33:36.492Z,7.35
2022-11-18T11:36:41.128Z,5.15
2022-11-18T11:39:48.505Z,5.60
2022-11-18T11:43:08.204Z,4.50
2022-11-18T11:46:19.247Z,4.75
2022-11-18T11:49:41.436Z,5.55
2022-11-18T11:52:54.971Z,5.10
2022-11-18T11:56:11.530Z,7.00
2022-11-18T11:59:28.322Z,6.72
2022-11-18T12:02:37.243Z,4.65
2022-11-18T12:05:42.881Z,4.70
2022-11-18T12:09:09.715Z,4.60
2022-11-18T12:12:35.587Z,5.82
2022-11-18T12:15:59.158Z,6.45
2022-11-18T12:19:21.641Z,5.47
2022-11-18T12:22:23.523Z,5.88
2022-11-18T12:25:43.598Z,6.22
2022-11-18T12:28:45.673Z,4.65
2022-11-18T12:31:50.500Z,5.72
2022-11-18T12:35:14.996Z,5.15
2022-11-18T12:38:31.560Z,5.10
2022-11-18T12:42:00.840Z,6.32
2022-11-18T12:45:40.231Z,4.60
2022-11-18T12:48:42.205Z,5.10
2022-11-18T12:51:44.285Z,6.85
2022-11-18T12:54:49.041Z,11.45
2022-11-18T12:57:50.744Z,8.13
2022-11-18T13:01:06.319Z,8.80
2022-11-18T13:04:14.442Z,8.55
2022-11-18T13:07:39.417Z,10.00
2022-11-18T13:10:44.283Z,8.27
2022-11-18T13:13:46.380Z,13.40
2022-11-18T13:17:07.249Z,9.70
2022-11-18T13:20:31.045Z,7.70
2022-11-18T13:23:56.144Z,9.80
2022-11-18T13:27:00.991Z,7.57
2022-11-18T13:30:12.727Z,7.93
2022-11-18T13:33:14.233Z,6.50
2022-11-18T13:36:20.905Z,6.20
2022-11-18T13:39:23.180Z,7.18
2022-11-18T13:42:27.865Z,8.38
2022-11-18T13:45:30.413Z,5.10
2022-11-18T13:48:34.999Z,8.32
2022-11-18T13:51:38.615Z,6.88
2022-11-18T13:54:41.273Z,5.85
2022-11-18T13:57:48.060Z,7.22
2022-11-18T14:01:01.584Z,5.57
2022-11-18T14:04:16.171Z,7.47
2022-11-18T14:07:33.483Z,5.80
2022-11-18T14:10:43.979Z,4.53
2022-11-18T14:13:59.862Z,6.55
2022-11-18T14:17:27.942Z,9.95
2022-11-18T14:20:30.731Z,5.70
2022-11-18T14:23:36.323Z,6.53
2022-11-18T14:26:38.684Z,4.83
2022-11-18T14:29:49.505Z,6.03
2022-11-18T14:33:06.173Z,8.65
2022-11-18T14:36:13.999Z,5.30
2022-11-18T14:39:27.422Z,6.93
2022-11-18T14:42:29.318Z,6.18
2022-11-18T14:45:31.286Z,5.05
2022-11-18T14:48:32.993Z,6.72
2022-11-18T14:51:34.512Z,6.30
2022-11-18T14:54:36.010Z,4.70
2022-11-18T14:57:37.582Z,8.23
2022-11-18T15:00:39.581Z,5.32
2022-11-18T15:03:41.115Z,7.55
2022-11-18T15:06:42.719Z,6.13
2022-11-18T15:09:44.775Z,6.47
2022-11-18T15:12:46.286Z,5.07
2022-11-18T15:15:48.423Z,4.28
2022-11-18T15:18:52.611Z,5.63
2022-11-18T15:21:54.145Z,5.15
2022-11-18T15:24:55.627Z,4.53
2022-11-18T15:27:57.258Z,4.93
2022-11-18T15:30:58.755Z,4.63
2022-11-18T15:34:06.283Z,5.10
2022-11-18T15:37:12.235Z,5.40
2022-11-18T15:40:14.018Z,5.25
2022-11-18T15:43:16.268Z,6.72
2022-11-18T15:46:19.349Z,4.82
2022-11-18T15:49:21.003Z,6.03
2022-11-18T15:52:22.943Z,5.05
2022-11-18T15:55:24.488Z,5.32
2022-11-18T15:58:26.017Z,5.03
2022-11-18T16:01:30.208Z,4.32
2022-11-18T16:04:31.737Z,5.40
2022-11-18T16:07:33.346Z,5.53
2022-11-18T16:10:54.603Z,4.50
2022-11-18T16:14:05.743Z,4.10
2022-11-18T16:17:07.236Z,4.95
2022-11-18T16:20:09.048Z,5.00
2022-11-18T16:23:10.561Z,5.13
2022-11-18T16:26:12.007Z,4.43
2022-11-18T16:29:16.590Z,5.55
2022-11-18T16:32:18.143Z,4.40
2022-11-18T16:35:19.636Z,4.95
2022-11-18T16:38:21.171Z,5.53
2022-11-18T16:41:31.503Z,4.85
2022-11-18T16:44:33.059Z,4.57
2022-11-18T16:47:34.542Z,4.53
2022-11-18T16:50:36.022Z,5.03
2022-11-18T16:53:37.524Z,4.65
2022-11-18T16:56:40.622Z,4.47
2022-11-18T16:59:42.214Z,6.03
2022-11-18T17:02:43.754Z,5.10
2022-11-18T17:05:45.233Z,7.93
2022-11-18T17:08:47.252Z,4.60
2022-11-18T17:11:49.697Z,5.10
2022-11-18T17:14:51.232Z,6.55
2022-11-18T17:17:52.762Z,6.47
2022-11-18T17:20:54.324Z,6.78
2022-11-18T17:23:56.639Z,5.82
2022-11-18T17:26:58.182Z,6.30
2022-11-18T17:29:59.686Z,6.70
2022-11-18T17:33:01.419Z,6.15
2022-11-18T17:36:16.853Z,5.32
2022-11-18T17:39:20.618Z,5.13
2022-11-18T17:42:25.569Z,5.95
2022-11-18T17:45:27.111Z,7.75
2022-11-18T17:48:30.203Z,6.75
2022-11-18T17:51:31.822Z,4.45
2022-11-18T17:54:33.335Z,5.15
2022-11-18T17:57:34.863Z,5.30
2022-11-18T18:00:37.272Z,5.65
2022-11-18T18:03:39.934Z,5.45
2022-11-18T18:06:41.481Z,6.45
2022-11-18T18:09:43.084Z,4.20
2022-11-18T18:13:03.451Z,4.65
2022-11-18T18:16:05.329Z,5.53
2022-11-18T18:19:08.176Z,5.72
2022-11-18T18:22:09.729Z,6.47
2022-11-18T18:25:12.070Z,4.95
2022-11-18T18:28:13.637Z,4.97
2022-11-18T18:31:16.907Z,5.80
2022-11-18T18:34:19.222Z,8.23
2022-11-18T18:37:21.009Z,4.78
2022-11-18T18:40:22.781Z,6.28
2022-11-18T18:43:24.325Z,6.75
2022-11-18T18:46:30.766Z,10.30
2022-11-18T18:49:32.563Z,7.13
2022-11-18T18:52:34.033Z,8.20
2022-11-18T18:55:37.292Z,7.75
2022-11-18T19:01:43.649Z,9.63
2022-11-18T19:04:46.490Z,8.60
2022-11-18T19:07:48.029Z,7.47
2022-11-18T19:10:49.567Z,6.55
2022-11-18T19:13:51.050Z,9.45
2022-11-18T19:16:53.291Z,10.13
2022-11-18T19:20:20.699Z,9.65
2022-11-18T19:23:22.273Z,8.55
2022-11-18T19:26:23.862Z,9.50
2022-11-18T19:29:25.898Z,11.40
2022-11-18T19:32:27.462Z,11.68
2022-11-18T19:38:35.693Z,11.80
2022-11-18T19:41:37.168Z,9.95
2022-11-18T19:44:39.270Z,10.02
2022-11-18T19:47:40.937Z,11.63
2022-11-18T19:50:42.438Z,10.98
2022-11-18T19:53:44.211Z,10.63
2022-11-18T19:56:45.671Z,11.35
2022-11-18T19:59:47.226Z,12.10
2022-11-18T20:02:51.326Z,12.85
2022-11-18T20:05:52.890Z,14.27
2022-11-18T20:08:55.697Z,11.55
2022-11-18T20:11:57.304Z,12.02
2022-11-18T20:14:58.781Z,11.80
2022-11-18T20:18:01.517Z,11.18
2022-11-18T20:21:07.921Z,13.48
2022-11-18T20:24:15.678Z,11.68
2022-11-18T20:27:18.685Z,13.73
2022-11-18T20:30:20.740Z,11.88
2022-11-18T20:33:22.202Z,11.77
2022-11-18T20:36:31.164Z,15.07
2022-11-18T20:39:32.732Z,12.52
2022-11-18T20:42:53.118Z,13.15
2022-11-18T20:45:57.362Z,12.18
2022-11-18T20:48:58.942Z,13.18
2022-11-18T20:52:00.538Z,13.57
2022-11-18T20:55:05.646Z,13.95
2022-11-18T20:58:08.066Z,13.70
2022-11-18T21:01:18.366Z,12.18
2022-11-18T21:04:19.886Z,10.20
2022-11-18T21:07:21.437Z,11.75
2022-11-18T21:10:22.962Z,11.10
2022-11-18T21:13:43.018Z,12.93
2022-11-18T21:16:45.761Z,12.05
2022-11-18T21:19:48.616Z,12.93
2022-11-18T21:22:50.211Z,9.82
2022-11-18T21:25:51.712Z,11.57
2022-11-18T21:28:54.541Z,12.35
2022-11-18T21:31:57.706Z,9.82
2022-11-18T21:34:59.198Z,10.32
2022-11-18T21:38:04.528Z,10.65
2022-11-18T21:41:07.601Z,10.02
2022-11-18T21:44:11.702Z,10.27
2022-11-18T21:47:13.185Z,10.25
2022-11-18T21:50:14.902Z,9.73
2022-11-18T21:53:16.430Z,11.10
2022-11-18T21:56:20.988Z,10.98
2022-11-18T21:59:23.578Z,9.73
2022-11-18T22:02:25.084Z,11.77
2022-11-18T22:05:27.190Z,10.98
2022-11-18T22:08:29.184Z,10.23
2022-11-18T22:11:30.828Z,11.80
2022-11-18T22:14:32.376Z,9.60
2022-11-18T22:17:33.905Z,8.52
2022-11-18T22:20:35.358Z,10.18
2022-11-18T22:23:37.027Z,10.93
2022-11-18T22:26:38.591Z,11.13
2022-11-18T22:29:40.067Z,9.60
2022-11-18T22:32:43.398Z,10.07
2022-11-18T22:35:45.475Z,11.15
2022-11-18T22:38:47.311Z,9.73
2022-11-18T22:42:07.642Z,9.02
2022-11-18T22:45:09.350Z,9.90
2022-11-18T22:48:10.853Z,8.32
2022-11-18T22:51:12.318Z,9.10
2022-11-18T22:54:37.870Z,9.13
2022-11-18T22:57:35.790Z,10.98
2022-11-18T23:00:37.826Z,8.77
2022-11-18T23:03:39.386Z,9.18
2022-11-18T23:06:40.883Z,9.13
2022-11-18T23:09:42.489Z,7.95
2022-11-18T23:13:02.262Z,8.98
2022-11-18T23:16:03.998Z,9.15
2022-11-18T23:19:11.020Z,9.88
2022-11-18T23:22:12.977Z,8.65
2022-11-18T23:25:14.558Z,9.40
2022-11-18T23:28:15.998Z,7.57
2022-11-18T23:31:25.292Z,9.30
2022-11-18T23:34:26.759Z,8.45
2022-11-18T23:37:28.223Z,9.38
2022-11-18T23:40:30.961Z,8.52
2022-11-18T23:43:33.337Z,7.32
2022-11-18T23:46:35.232Z,8.20
2022-11-18T23:49:36.775Z,9.65
2022-11-18T23:52:41.616Z,8.05
2022-11-18T23:55:43.129Z,6.80
2022-11-18T23:58:46.777Z,9.68
